Time;durP1;ratioP1;P1;durP2;ratioP2;P2;SDS_P1;SDS_P2;PMS_P1;PMS_P2;Temp;Humidity;BMP_temperature;BMP_pressure;BME280_temperature;BME280_humidity;BME280_pressure;Samples;Min_cycle;Max_cycle;Signal;HPM_P1;HPM_P2
2021/11/29 13:24:44;;;;;;;16.55;14.80;;;;;;;9.60;100.00;96253.31;1798248;79;22740;-62
2021/11/29 13:27:20;;;;;;;18.67;13.53;;;;;;;9.54;100.00;96257.55;1738964;80;21585;-62
2021/11/29 13:29:55;;;;;;;17.52;13.40;;;;;;;9.53;100.00;96259.80;1758273;81;21689;-62
2021/11/29 13:32:29;;;;;;;16.45;13.90;;;;;;;9.52;100.00;96262.89;1758259;80;20844;-62
2021/11/29 13:35:02;;;;;;;14.85;13.35;;;;;;;9.54;100.00;96264.98;1758317;80;20860;-63
2021/11/29 13:37:38;;;;;;;16.02;14.33;;;;;;;9.54;100.00;96266.77;1758277;80;21002;-62
2021/11/29 13:40:16;;;;;;;18.17;14.70;;;;;;;9.50;100.00;96277.05;1758334;80;20876;-63
2021/11/29 13:42:47;;;;;;;17.45;13.80;;;;;;;9.46;100.00;96285.09;1758313;80;21138;-63
2021/11/29 13:45:19;;;;;;;14.53;12.82;;;;;;;9.43;100.00;96291.77;1758424;81;20955;-63
2021/11/29 13:47:50;;;;;;;15.88;14.15;;;;;;;9.42;100.00;96305.85;1738636;81;21031;-64
2021/11/29 13:50:24;;;;;;;15.88;14.13;;;;;;;9.38;100.00;96293.77;1758234;81;20971;-64
2021/11/29 13:53:01;;;;;;;17.92;15.18;;;;;;;9.36;100.00;96289.50;1758294;80;20856;-63
2021/11/29 13:55:32;;;;;;;17.25;14.45;;;;;;;9.31;100.00;96277.88;1758129;81;21439;-63
2021/11/29 13:58:11;;;;;;;18.73;14.23;;;;;;;9.30;100.00;96277.95;1758141;80;21451;-63
2021/11/29 14:00:48;;;;;;;16.52;13.62;;;;;;;9.28;100.00;96267.97;1757597;81;21534;-63
2021/11/29 14:03:25;;;;;;;16.97;14.68;;;;;;;9.25;100.00;96261.08;1757313;80;21003;-63
2021/11/29 14:06:07;;;;;;;17.67;15.53;;;;;;;9.21;100.00;96265.23;1757872;81;20900;-62
2021/11/29 14:08:42;;;;;;;17.60;14.50;;;;;;;9.17;100.00;96267.16;1758402;81;21143;-63
2021/11/29 14:11:23;;;;;;;15.78;14.00;;;;;;;9.12;100.00;96263.89;1758542;80;20924;-64
2021/11/29 14:13:56;;;;;;;17.77;13.55;;;;;;;9.08;100.00;96264.49;1757581;81;20861;-64
2021/11/29 14:16:40;;;;;;;16.07;13.70;;;;;;;9.08;100.00;96257.92;1758431;81;21372;-62
2021/11/29 14:19:15;;;;;;;19.50;14.65;;;;;;;9.05;100.00;96259.84;1756695;80;21276;-63
2021/11/29 14:21:46;;;;;;;21.23;16.20;;;;;;;8.99;100.00;96256.17;1704037;83;21172;-62
2021/11/29 14:24:22;;;;;;;20.30;15.38;;;;;;;8.92;100.00;96273.13;1702068;84;21546;-62
2021/11/29 14:26:59;;;;;;;20.17;14.43;;;;;;;8.89;100.00;96284.62;1655700;85;21000;-62
2021/11/29 14:29:31;;;;;;;21.50;15.38;;;;;;;8.88;100.00;96292.58;1647316;87;21012;-61
2021/11/29 14:32:12;;;;;;;12.18;10.65;;;;;;;8.87;100.00;96296.13;1648431;87;21456;-62
2021/11/29 14:34:58;;;;;;;18.12;14.35;;;;;;;8.83;100.00;96283.59;1626025;87;21187;-63
2021/11/29 14:37:33;;;;;;;17.25;14.15;;;;;;;8.79;100.00;96293.39;1647911;87;21488;-63
2021/11/29 14:40:15;;;;;;;16.52;13.43;;;;;;;8.77;100.00;96305.74;1647514;87;21138;-63
2021/11/29 14:42:50;;;;;;;16.37;13.30;;;;;;;8.76;100.00;96317.17;1625880;87;20980;-63
2021/11/29 14:45:24;;;;;;;16.90;12.78;;;;;;;8.76;100.00;96327.69;1647586;86;20920;-64
2021/11/29 14:47:54;;;;;;;15.75;13.32;;;;;;;8.75;100.00;96329.92;1647651;86;21363;-62
2021/11/29 14:50:29;;;;;;;20.05;13.65;;;;;;;8.74;100.00;96324.73;1646274;87;21115;-62
2021/11/29 14:53:00;;;;;;;15.80;13.58;;;;;;;8.71;100.00;96321.78;1684884;83;20980;-60
2021/11/29 14:55:32;;;;;;;17.00;13.40;;;;;;;8.71;100.00;96331.44;1710607;84;20932;-61
2021/11/29 14:58:11;;;;;;;17.70;13.13;;;;;;;8.69;100.00;96340.70;1710755;83;20901;-66
2021/11/29 15:00:50;;;;;;;20.97;13.70;;;;;;;8.67;100.00;96347.80;1685450;84;21188;-57
2021/11/29 15:03:28;;;;;;;16.93;14.50;;;;;;;8.66;100.00;96353.13;1710523;84;20885;-68
2021/11/29 15:06:10;;;;;;;19.12;14.73;;;;;;;8.69;100.00;96366.13;1710696;83;20873;-67
2021/11/29 15:08:38;;;;;;;22.25;16.42;;;;;;;8.71;100.00;96391.89;1710747;84;20889;-68
2021/11/29 15:11:15;;;;;;;17.07;15.18;;;;;;;8.71;100.00;96392.73;1710596;83;20909;-69
2021/11/29 15:13:55;;;;;;;15.60;13.18;;;;;;;8.72;100.00;96406.73;1711039;83;21143;-67
2021/11/29 15:16:33;;;;;;;17.80;14.28;;;;;;;8.73;100.00;96416.33;1711737;82;21086;-66
2021/11/29 15:19:31;;;;;;;16.00;13.15;;;;;;;8.72;100.00;96430.38;1709715;82;20947;-66
2021/11/29 15:22:11;;;;;;;14.58;12.65;;;;;;;8.71;100.00;96436.10;1708275;82;21459;-66
2021/11/29 15:24:51;;;;;;;17.45;13.60;;;;;;;8.69;100.00;96439.25;1702402;82;21428;-66
2021/11/29 15:27:39;;;;;;;16.93;12.60;;;;;;;8.63;100.00;96437.34;1701724;82;21009;-65
2021/11/29 15:30:20;;;;;;;13.38;11.68;;;;;;;8.60;100.00;96425.64;1701875;82;20909;-65
2021/11/29 15:32:53;;;;;;;15.98;12.78;;;;;;;8.56;100.00;96422.30;1703003;82;21051;-67
2021/11/29 15:35:29;;;;;;;15.98;13.03;;;;;;;8.51;100.00;96425.11;1702752;82;20984;-65
2021/11/29 15:38:24;;;;;;;13.48;11.12;;;;;;;8.47;100.00;96429.20;1700196;82;21035;-66
2021/11/29 15:41:15;;;;;;;12.93;9.88;;;;;;;8.43;100.00;96427.17;1702491;82;21178;-65
2021/11/29 15:43:52;;;;;;;11.00;9.15;;;;;;;8.41;100.00;96426.83;1700333;82;20908;-65
2021/11/29 15:46:31;;;;;;;11.43;9.48;;;;;;;8.37;100.00;96430.05;1701700;82;20940;-65
2021/11/29 15:49:04;;;;;;;13.90;8.70;;;;;;;8.35;100.00;96427.09;1704282;83;21146;-68
2021/11/29 15:51:34;;;;;;;13.78;9.95;;;;;;;8.32;100.00;96423.23;1703738;82;20895;-68
2021/11/29 15:54:07;;;;;;;11.12;9.13;;;;;;;8.26;100.00;96415.61;1701587;82;21361;-69
2021/11/29 15:56:34;;;;;;;;;;;;;;;8.24;100.00;96406.94;1706658;82;21015;-68
2021/11/29 15:59:08;;;;;;;11.45;8.48;;;;;;;8.23;100.00;96404.77;1699828;82;20130;-66
2021/11/29 16:01:38;;;;;;;10.28;8.65;;;;;;;8.22;100.00;96403.06;1702969;82;21503;-69
2021/11/29 16:04:08;;;;;;;9.83;8.58;;;;;;;8.25;100.00;96404.25;1700097;82;20953;-70
2021/11/29 16:06:37;;;;;;;10.03;8.28;;;;;;;8.26;100.00;96404.64;1701183;84;20901;-69
2021/11/29 16:09:05;;;;;;;12.80;9.00;;;;;;;8.25;100.00;96402.94;1700828;83;20936;-69
2021/11/29 16:11:34;;;;;;;11.22;8.30;;;;;;;8.24;100.00;96395.97;1699596;83;21443;-70
2021/11/29 16:14:03;;;;;;;8.83;6.95;;;;;;;8.23;100.00;96402.60;1696474;84;21530;-70
2021/11/29 16:16:33;;;;;;;6.10;5.37;;;;;;;8.16;100.00;96417.30;1696259;83;21521;-68
2021/11/29 16:19:03;;;;;;;5.72;4.75;;;;;;;8.10;100.00;96428.04;1696620;84;21605;-70
2021/11/29 16:21:32;;;;;;;5.12;4.35;;;;;;;8.05;100.00;96426.05;1741531;81;20970;-62
2021/11/29 16:24:00;;;;;;;6.70;4.80;;;;;;;7.98;100.00;96440.77;1747349;80;20879;-60
2021/11/29 16:26:28;;;;;;;5.33;4.45;;;;;;;7.94;100.00;96454.47;1758388;80;20946;-62
2021/11/29 16:28:57;;;;;;;5.25;4.70;;;;;;;7.88;100.00;96453.39;1758410;80;20957;-62
2021/11/29 16:31:24;;;;;;;7.03;4.53;;;;;;;7.83;100.00;96459.27;1758298;80;21185;-61
2021/11/29 16:33:53;;;;;;;5.78;4.58;;;;;;;7.78;100.00;96470.41;1758328;80;20915;-60
2021/11/29 16:36:21;;;;;;;7.28;4.83;;;;;;;7.75;100.00;96485.80;1758385;80;21029;-61
2021/11/29 16:38:50;;;;;;;5.60;4.22;;;;;;;7.70;100.00;96503.95;1758517;80;20898;-62
2021/11/29 16:41:19;;;;;;;7.30;5.58;;;;;;;7.66;100.00;96517.63;1758411;80;20918;-61
2021/11/29 16:43:47;;;;;;;8.38;6.20;;;;;;;7.62;100.00;96536.16;1732873;81;21150;-60
2021/11/29 16:46:16;;;;;;;8.78;6.60;;;;;;;7.57;100.00;96546.83;1758242;80;20922;-61
2021/11/29 16:48:49;;;;;;;11.90;7.45;;;;;;;7.52;100.00;96551.34;1758403;80;20907;-61
2021/11/29 16:51:14;;;;;;;16.80;7.20;;;;;;;7.48;100.00;96563.72;1757948;80;20885;-62
2021/11/29 16:53:44;;;;;;;6.10;5.20;;;;;;;7.42;100.00;96577.05;1758397;80;20918;-62
2021/11/29 16:56:13;;;;;;;6.97;5.40;;;;;;;7.32;100.00;96582.66;1758434;80;21151;-62
2021/11/29 16:58:41;;;;;;;5.62;5.03;;;;;;;7.25;100.00;96585.95;1758315;80;20839;-63
2021/11/29 17:01:10;;;;;;;5.85;4.22;;;;;;;7.23;100.00;96592.55;1758326;80;21465;-62
2021/11/29 17:03:38;;;;;;;7.20;3.95;;;;;;;7.20;100.00;96607.08;1758343;80;20978;-61
2021/11/29 17:06:07;;;;;;;4.87;3.70;;;;;;;7.14;100.00;96600.73;1758423;80;20935;-61
2021/11/29 17:08:35;;;;;;;5.85;4.30;;;;;;;7.07;100.00;96603.11;1758415;80;21098;-61
2021/11/29 17:11:03;;;;;;;4.70;3.90;;;;;;;7.01;100.00;96598.53;1758334;80;21502;-61
2021/11/29 17:13:31;;;;;;;5.33;4.00;;;;;;;6.95;100.00;96610.06;1758386;80;21001;-60
2021/11/29 17:16:00;;;;;;;5.08;3.90;;;;;;;6.87;100.00;96623.42;1758590;80;21426;-60
2021/11/29 17:18:28;;;;;;;4.35;3.27;;;;;;;6.81;100.00;96631.47;1758408;80;20958;-61
2021/11/29 17:20:56;;;;;;;5.28;3.65;;;;;;;6.75;100.00;96630.81;1758740;80;21792;-62
2021/11/29 17:23:26;;;;;;;4.97;3.60;;;;;;;6.71;100.00;96631.81;1758368;80;20958;-61
2021/11/29 17:25:55;;;;;;;6.70;4.35;;;;;;;6.62;100.00;96638.16;1740869;81;21494;-61
2021/11/29 17:28:23;;;;;;;6.10;4.45;;;;;;;6.57;100.00;96636.98;1756270;80;20934;-61
2021/11/29 17:30:51;;;;;;;6.42;5.10;;;;;;;6.53;100.00;96650.22;1758694;80;20942;-60
2021/11/29 17:33:19;;;;;;;5.30;4.22;;;;;;;6.49;100.00;96665.63;1758320;80;21170;-61
2021/11/29 17:35:47;;;;;;;6.30;4.20;;;;;;;6.42;100.00;96658.41;1758704;80;20918;-62
2021/11/29 17:38:16;;;;;;;5.37;4.17;;;;;;;6.39;100.00;96666.80;1758367;80;20902;-61
2021/11/29 17:40:44;;;;;;;6.03;3.85;;;;;;;6.35;100.00;96669.09;1758335;80;20910;-62
2021/11/29 17:43:13;;;;;;;5.58;3.58;;;;;;;6.27;100.00;96670.18;1758450;80;21033;-60
2021/11/29 17:45:43;;;;;;;4.87;3.77;;;;;;;6.22;100.00;96662.91;1758625;80;21123;-61
2021/11/29 17:48:13;;;;;;;8.50;6.00;;;;;;;6.17;100.00;96671.80;1758325;80;21529;-61
2021/11/29 17:50:41;;;;;;;10.55;6.12;;;;;;;6.15;100.00;96680.11;1758678;80;20993;-62
2021/11/29 17:53:11;;;;;;;7.10;4.70;;;;;;;6.14;100.00;96684.94;1758313;80;21041;-61
2021/11/29 17:55:40;;;;;;;6.87;4.53;;;;;;;6.12;100.00;96681.50;1758625;80;20939;-60
2021/11/29 17:58:08;;;;;;;6.22;4.60;;;;;;;6.10;100.00;96688.09;1758302;80;21159;-61
2021/11/29 18:00:37;;;;;;;7.05;4.15;;;;;;;6.12;100.00;96698.06;1758639;80;20874;-60
2021/11/29 18:03:08;;;;;;;4.60;3.75;;;;;;;6.12;100.00;96704.61;1758267;80;20934;-60
2021/11/29 18:05:40;;;;;;;4.65;3.95;;;;;;;6.09;100.00;96695.98;1758576;80;20929;-62
2021/11/29 18:08:16;;;;;;;;;;;;;;;6.05;100.00;96694.35;1761145;80;20894;-63
2021/11/29 18:13:08;;;;;;;5.37;4.25;;;;;;;5.90;100.00;96711.33;1758386;80;21401;-61
2021/11/29 18:15:38;;;;;;;7.37;5.12;;;;;;;5.82;100.00;96708.02;1758788;80;21430;-61
2021/11/29 18:18:07;;;;;;;7.15;5.20;;;;;;;5.74;100.00;96719.14;1758451;80;20994;-61
2021/11/29 18:20:35;;;;;;;7.35;5.28;;;;;;;5.66;100.00;96712.77;1758880;80;21010;-62
2021/11/29 18:23:05;;;;;;;8.58;5.67;;;;;;;5.63;100.00;96714.15;1758489;80;21214;-62
2021/11/29 18:25:34;;;;;;;7.70;5.67;;;;;;;5.62;100.00;96717.66;1758454;80;20942;-61
2021/11/29 18:28:03;;;;;;;7.72;5.05;;;;;;;5.62;100.00;96728.12;1758405;80;20978;-61
2021/11/29 18:30:32;;;;;;;5.75;4.75;;;;;;;5.62;100.00;96737.28;1758428;80;20938;-62
2021/11/29 18:33:00;;;;;;;5.97;4.20;;;;;;;5.58;100.00;96751.33;1758387;80;20847;-63
2021/11/29 18:35:28;;;;;;;5.80;4.45;;;;;;;5.51;100.00;96753.23;1758489;80;21130;-62
2021/11/29 18:37:56;;;;;;;5.95;4.25;;;;;;;5.45;100.00;96759.06;1758415;80;21457;-63
2021/11/29 18:40:25;;;;;;;5.28;4.50;;;;;;;5.37;100.00;96756.63;1758606;80;20922;-64
2021/11/29 18:42:54;;;;;;;5.85;4.28;;;;;;;5.29;100.00;96766.41;1758483;80;21010;-62
2021/11/29 18:45:22;;;;;;;5.12;4.40;;;;;;;5.20;100.00;96783.58;1758461;80;20934;-62
2021/11/29 18:47:50;;;;;;;5.03;4.05;;;;;;;5.08;100.00;96783.41;1758498;80;21098;-61
2021/11/29 18:50:20;;;;;;;4.62;4.15;;;;;;;4.99;100.00;96797.98;1758697;80;21046;-60
2021/11/29 18:52:49;;;;;;;4.55;4.00;;;;;;;4.92;100.00;96795.09;1758475;80;20965;-62
2021/11/29 18:55:17;;;;;;;4.78;4.28;;;;;;;4.85;100.00;96794.81;1758435;80;20966;-61
2021/11/29 18:57:45;;;;;;;5.78;4.60;;;;;;;4.74;100.00;96790.67;1758607;80;21497;-62
2021/11/29 19:00:17;;;;;;;5.05;4.55;;;;;;;4.66;100.00;96786.47;1758557;80;21176;-61
2021/11/29 19:02:45;;;;;;;5.65;4.72;;;;;;;4.57;100.00;96780.12;1758398;80;21018;-61
2021/11/29 19:05:18;;;;;;;6.97;5.35;;;;;;;4.51;100.00;96778.95;1758579;80;26798;-60
2021/11/29 19:07:46;;;;;;;6.12;4.80;;;;;;;4.48;100.00;96781.17;1758552;80;21473;-61
2021/11/29 19:10:15;;;;;;;5.85;5.30;;;;;;;4.45;100.00;96779.07;1758450;80;20942;-61
2021/11/29 19:12:44;;;;;;;7.65;5.75;;;;;;;4.42;100.00;96783.47;1758540;80;21158;-61
2021/11/29 19:15:13;;;;;;;7.00;5.45;;;;;;;4.35;100.00;96788.39;1758608;80;20981;-61
2021/11/29 19:17:42;;;;;;;7.25;5.60;;;;;;;4.36;100.00;96791.41;1758505;80;21488;-60
2021/11/29 19:20:11;;;;;;;6.97;5.67;;;;;;;4.37;100.00;96801.41;1758454;80;20937;-61
2021/11/29 19:22:39;;;;;;;6.05;5.45;;;;;;;4.36;100.00;96817.96;1758433;80;20855;-61
2021/11/29 19:25:09;;;;;;;6.60;5.67;;;;;;;4.33;100.00;96818.88;1758383;80;20879;-61
2021/11/29 19:27:39;;;;;;;9.23;7.05;;;;;;;4.31;100.00;96806.75;1753635;80;20947;-60
2021/11/29 19:30:10;;;;;;;10.08;6.95;;;;;;;4.28;100.00;96800.28;1741698;81;20891;-61
2021/11/29 19:32:41;;;;;;;7.30;5.72;;;;;;;4.22;100.00;96810.36;1741707;81;20937;-62
2021/11/29 19:35:09;;;;;;;5.70;5.10;;;;;;;4.18;100.00;96816.52;1741681;81;20940;-61
2021/11/29 19:37:39;;;;;;;6.08;5.47;;;;;;;4.22;100.00;96812.97;1741734;81;21210;-60
2021/11/29 19:40:11;;;;;;;7.67;6.62;;;;;;;4.24;100.00;96816.41;1741626;81;20891;-61
2021/11/29 19:42:39;;;;;;;7.03;5.87;;;;;;;4.24;100.00;96800.75;1741327;81;20852;-61
2021/11/29 19:45:08;;;;;;;6.70;5.60;;;;;;;4.26;100.00;96800.31;1741587;81;20888;-60
2021/11/29 19:47:38;;;;;;;6.53;5.80;;;;;;;4.25;100.00;96790.73;1741886;81;20879;-59
2021/11/29 19:50:08;;;;;;;6.53;5.30;;;;;;;4.26;100.00;96800.31;1741647;81;21086;-61
2021/11/29 19:52:36;;;;;;;7.28;5.60;;;;;;;4.26;100.00;96800.75;1741880;81;20934;-60
2021/11/29 19:55:06;;;;;;;8.18;6.25;;;;;;;4.27;100.00;96790.28;1741640;81;21467;-60
2021/11/29 19:57:34;;;;;;;8.53;6.08;;;;;;;4.30;100.00;96780.23;1741872;81;21431;-59
2021/11/29 20:00:04;;;;;;;7.60;5.25;;;;;;;4.31;100.00;96768.91;1741632;81;21466;-59
2021/11/29 20:02:33;;;;;;;7.37;5.53;;;;;;;4.29;100.00;96765.47;1741652;81;21148;-61
2021/11/29 20:05:01;;;;;;;7.37;5.60;;;;;;;4.20;100.00;96773.44;1741592;81;20860;-60
2021/11/29 20:07:29;;;;;;;7.03;5.10;;;;;;;4.13;100.00;96779.22;1741694;81;20969;-60
2021/11/29 20:10:00;;;;;;;6.40;5.33;;;;;;;4.07;100.00;96785.41;1741931;81;20974;-60
2021/11/29 20:12:32;;;;;;;7.12;5.62;;;;;;;4.03;100.00;96798.54;1741744;81;20927;-60
2021/11/29 20:14:59;;;;;;;7.65;5.47;;;;;;;3.97;100.00;96807.33;1741636;81;21157;-61
2021/11/29 20:17:27;;;;;;;8.85;5.83;;;;;;;3.93;100.00;96804.80;1741625;81;21568;-61
2021/11/29 20:19:55;;;;;;;7.30;5.25;;;;;;;3.89;100.00;96807.05;1741608;81;21029;-60
2021/11/29 20:22:23;;;;;;;6.47;4.78;;;;;;;3.86;100.00;96807.97;1741615;81;20986;-60
2021/11/29 20:24:51;;;;;;;7.05;4.62;;;;;;;3.83;100.00;96818.45;1741650;81;20919;-60
2021/11/29 20:27:19;;;;;;;6.72;4.80;;;;;;;3.77;100.00;96823.29;1741558;81;21171;-61
2021/11/29 20:29:47;;;;;;;6.75;4.72;;;;;;;3.73;100.00;96824.67;1741588;81;20883;-59
2021/11/29 20:32:15;;;;;;;6.12;4.62;;;;;;;3.66;100.00;96821.30;1741587;81;20974;-61
2021/11/29 20:34:43;;;;;;;8.50;4.87;;;;;;;3.62;100.00;96823.55;1741571;81;21034;-61
2021/11/29 20:37:11;;;;;;;5.35;4.62;;;;;;;3.60;100.00;96826.61;1741614;81;21038;-60
2021/11/29 20:39:39;;;;;;;8.48;4.53;;;;;;;3.58;100.00;96824.92;1712650;81;21176;-60
2021/11/29 20:42:08;;;;;;;7.00;5.58;;;;;;;3.56;100.00;96814.96;1741519;81;20923;-61
2021/11/29 20:44:37;;;;;;;6.12;5.37;;;;;;;3.55;100.00;96814.54;1741998;81;21404;-61
2021/11/29 20:47:05;;;;;;;6.85;4.75;;;;;;;3.51;100.00;96818.94;1741587;81;21498;-60
2021/11/29 20:49:33;;;;;;;6.12;4.55;;;;;;;3.52;100.00;96825.88;1741600;81;21470;-61
2021/11/29 20:52:02;;;;;;;7.67;4.55;;;;;;;3.49;100.00;96831.14;1741609;81;21166;-61
2021/11/29 20:54:30;;;;;;;5.30;4.22;;;;;;;3.46;100.00;96843.77;1741810;81;21552;-61
2021/11/29 20:56:58;;;;;;;5.83;5.00;;;;;;;3.44;100.00;96851.20;1741569;81;21100;-61
2021/11/29 20:59:26;;;;;;;8.93;4.97;;;;;;;3.41;100.00;96861.22;1741563;81;20983;-62
2021/11/29 21:01:54;;;;;;;5.92;4.47;;;;;;;3.40;100.00;96862.11;1741610;81;20998;-62
2021/11/29 21:04:23;;;;;;;8.73;4.92;;;;;;;3.40;100.00;96865.16;1741515;81;21104;-62
2021/11/29 21:06:51;;;;;;;5.50;4.50;;;;;;;3.36;100.00;96879.97;1741639;81;20923;-61
2021/11/29 21:09:19;;;;;;;5.10;4.58;;;;;;;3.35;100.00;96889.11;1741594;81;20952;-62
2021/11/29 21:11:47;;;;;;;5.35;4.85;;;;;;;3.31;100.00;96900.43;1741872;81;20859;-62
2021/11/29 21:14:16;;;;;;;6.78;5.45;;;;;;;3.31;100.00;96892.61;1741687;81;21391;-62
2021/11/29 21:16:45;;;;;;;6.58;4.90;;;;;;;3.29;100.00;96896.98;1741710;81;21893;-62
2021/11/29 21:19:14;;;;;;;6.75;5.40;;;;;;;3.25;100.00;96903.98;1741510;81;21462;-62
2021/11/29 21:21:42;;;;;;;6.03;4.80;;;;;;;3.23;100.00;96906.19;1741875;81;20935;-60
2021/11/29 21:24:12;;;;;;;7.87;5.53;;;;;;;3.20;100.00;96907.09;1741534;81;20899;-59
2021/11/29 21:26:40;;;;;;;6.78;5.42;;;;;;;3.16;100.00;96890.63;1741665;81;20884;-62
2021/11/29 21:29:09;;;;;;;7.25;5.67;;;;;;;3.09;100.00;96899.41;1741588;80;21082;-61
2021/11/29 21:31:37;;;;;;;8.53;5.60;;;;;;;3.05;100.00;96901.64;1741664;81;20931;-61
2021/11/29 21:34:06;;;;;;;7.42;6.03;;;;;;;3.03;100.00;96895.59;1741536;81;21031;-61
2021/11/29 21:36:34;;;;;;;7.78;6.03;;;;;;;3.03;100.00;96898.19;1741584;81;21068;-63
2021/11/29 21:39:03;;;;;;;7.45;5.75;;;;;;;2.98;100.00;96904.33;1741579;81;21057;-61
2021/11/29 21:41:31;;;;;;;7.33;5.80;;;;;;;2.95;100.00;96914.79;1712531;81;21217;-61
2021/11/29 21:44:00;;;;;;;7.08;5.28;;;;;;;2.91;100.00;96927.42;1741520;81;20872;-61
2021/11/29 21:46:28;;;;;;;6.05;5.00;;;;;;;2.90;100.00;96942.63;1741780;81;20979;-63
2021/11/29 21:48:57;;;;;;;6.75;5.28;;;;;;;2.91;100.00;96941.75;1741675;81;20936;-61
2021/11/29 21:51:25;;;;;;;6.87;5.30;;;;;;;2.91;100.00;96950.86;1741793;81;20994;-60
2021/11/29 21:53:54;;;;;;;6.62;5.45;;;;;;;2.90;100.00;96959.55;1741805;81;21802;-62
2021/11/29 21:56:23;;;;;;;6.90;5.17;;;;;;;2.90;100.00;96970.83;1741899;81;21025;-63
2021/11/29 21:58:52;;;;;;;7.08;5.47;;;;;;;2.91;100.00;96979.06;1741846;81;21581;-63
2021/11/29 22:01:20;;;;;;;7.33;5.80;;;;;;;2.90;100.00;96990.80;1712789;81;20899;-61
2021/11/29 22:03:49;;;;;;;7.83;5.72;;;;;;;2.90;100.00;96978.64;1741621;81;20980;-60
2021/11/29 22:06:18;;;;;;;8.20;6.42;;;;;;;2.91;100.00;96981.67;1741817;81;21407;-62
2021/11/29 22:08:47;;;;;;;7.33;5.80;;;;;;;2.92;100.00;96981.23;1741654;81;20931;-61
2021/11/29 22:11:15;;;;;;;8.73;5.42;;;;;;;2.88;100.00;96985.61;1741788;81;20899;-61
2021/11/29 22:13:43;;;;;;;6.83;5.75;;;;;;;2.88;100.00;96992.55;1741724;81;20955;-63
2021/11/29 22:16:11;;;;;;;6.35;5.50;;;;;;;2.90;100.00;96988.19;1741876;81;20884;-63
2021/11/29 22:18:40;;;;;;;6.28;5.17;;;;;;;2.90;100.00;96992.96;1741750;81;21125;-63
2021/11/29 22:21:08;;;;;;;7.08;5.45;;;;;;;2.91;100.00;97007.70;1741566;81;20970;-61
2021/11/29 22:23:36;;;;;;;16.85;6.10;;;;;;;2.92;100.00;97006.83;1741665;81;20895;-61
2021/11/29 22:26:04;;;;;;;7.75;5.60;;;;;;;2.93;100.00;97018.11;1741569;81;20887;-62
2021/11/29 22:28:34;;;;;;;6.58;5.35;;;;;;;2.95;100.00;97028.93;1741635;81;21426;-61
2021/11/29 22:31:02;;;;;;;5.72;4.65;;;;;;;2.98;100.00;97026.30;1741764;81;21099;-63
2021/11/29 22:33:30;;;;;;;6.58;5.12;;;;;;;3.02;100.00;97023.22;1741590;81;20943;-61
2021/11/29 22:35:59;;;;;;;7.87;5.33;;;;;;;3.05;100.00;97034.91;1741928;81;20923;-63
2021/11/29 22:38:27;;;;;;;8.03;5.35;;;;;;;3.05;100.00;97047.49;1741716;81;20879;-63
2021/11/29 22:40:57;;;;;;;7.60;5.53;;;;;;;3.08;100.00;97050.50;1741739;81;21002;-62
2021/11/29 22:43:27;;;;;;;7.08;5.78;;;;;;;3.08;100.00;97057.88;1741695;81;21132;-61
2021/11/29 22:45:56;;;;;;;7.45;5.75;;;;;;;3.09;100.00;97063.52;1741580;81;21470;-61
2021/11/29 22:48:24;;;;;;;6.10;5.50;;;;;;;3.09;100.00;97059.61;1741682;81;21465;-61
2021/11/29 22:50:54;;;;;;;7.00;5.70;;;;;;;3.11;100.00;97047.87;1741633;81;20979;-62
2021/11/29 22:53:24;;;;;;;7.58;5.45;;;;;;;3.11;100.00;97057.84;1741714;81;21038;-61
2021/11/29 22:55:52;;;;;;;7.55;5.50;;;;;;;3.11;100.00;97062.20;1741614;81;21156;-63
2021/11/29 22:58:21;;;;;;;6.50;5.05;;;;;;;3.11;100.00;97068.70;1741563;81;21498;-61
2021/11/29 23:01:06;;;;;;;7.08;5.03;;;;;;;3.09;100.00;97076.53;1741762;81;20939;-61
2021/11/29 23:03:38;;;;;;;6.05;4.95;;;;;;;3.09;100.00;97084.35;1741526;81;21435;-61
2021/11/29 23:06:12;;;;;;;7.10;5.53;;;;;;;3.08;100.00;97082.63;1741598;81;21483;-61
2021/11/29 23:08:46;;;;;;;7.08;5.92;;;;;;;3.08;100.00;97096.09;1741774;81;21191;-61
2021/11/29 23:11:23;;;;;;;7.50;5.87;;;;;;;3.07;100.00;97096.97;1741867;81;20946;-63
2021/11/29 23:13:53;;;;;;;6.70;5.50;;;;;;;3.05;100.00;97095.68;1741974;81;20991;-61
2021/11/29 23:16:21;;;;;;;8.60;6.92;;;;;;;3.04;100.00;97109.58;1741786;81;20999;-63
2021/11/29 23:18:54;;;;;;;8.80;6.28;;;;;;;3.04;100.00;97100.91;1741740;81;20855;-61
2021/11/29 23:21:23;;;;;;;7.25;6.03;;;;;;;3.05;100.00;97107.40;1741715;81;21091;-62
2021/11/29 23:23:51;;;;;;;7.10;5.50;;;;;;;3.04;100.00;97110.88;1741640;81;20974;-61
2021/11/29 23:26:20;;;;;;;6.15;4.92;;;;;;;3.06;100.00;97112.17;1741687;81;20987;-61
2021/11/29 23:28:49;;;;;;;6.97;5.50;;;;;;;3.06;100.00;97116.08;1712768;81;21038;-61
2021/11/29 23:31:18;;;;;;;7.67;6.22;;;;;;;3.05;100.00;97113.91;1741691;81;21549;-61
2021/11/29 23:33:47;;;;;;;8.35;5.75;;;;;;;3.04;100.00;97112.19;1741682;81;21158;-61
2021/11/29 23:36:16;;;;;;;7.53;5.60;;;;;;;3.04;100.00;97126.51;1741652;81;21045;-63
2021/11/29 23:38:45;;;;;;;8.55;6.05;;;;;;;3.03;100.00;97123.92;1741697;81;22440;-62
2021/11/29 23:41:13;;;;;;;8.20;6.47;;;;;;;3.05;100.00;97124.77;1741619;81;21035;-60
2021/11/29 23:43:41;;;;;;;8.53;7.00;;;;;;;3.05;100.00;97128.23;1741709;81;21679;-62
2021/11/29 23:46:20;;;;;;;9.13;7.17;;;;;;;3.05;100.00;97126.94;1741892;81;21077;-62
2021/11/29 23:48:57;;;;;;;12.80;7.42;;;;;;;3.04;100.00;97128.25;1741156;81;20951;-61
2021/11/29 23:51:26;;;;;;;9.48;7.70;;;;;;;3.04;100.00;97134.77;1741531;81;20983;-60
2021/11/29 23:53:58;;;;;;;9.23;7.42;;;;;;;3.02;100.00;97144.33;1741692;81;21450;-61
2021/11/29 23:56:51;;;;;;;8.73;7.07;;;;;;;3.02;100.00;97144.33;1742189;81;20982;-62
2021/11/29 23:59:27;;;;;;;8.20;6.72;;;;;;;3.02;100.00;97141.29;1741188;81;21184;-61
